sensor_id;sensor_type;location;lat;lon;timestamp;pressure;altitude;pressure_sealevel;temperature;humidity
62617;BME280;62539;51.190;6.808;2023-02-14T00:01:50;103187.72;;;19.96;50.80
62617;BME280;62539;51.190;6.808;2023-02-14T00:04:17;103183.38;;;19.94;50.90
62617;BME280;62539;51.190;6.808;2023-02-14T00:06:43;103181.59;;;19.91;50.75
62617;BME280;62539;51.190;6.808;2023-02-14T00:09:17;103178.06;;;19.88;50.92
62617;BME280;62539;51.190;6.808;2023-02-14T00:11:43;103180.69;;;19.86;51.02
62617;BME280;62539;51.190;6.808;2023-02-14T00:14:10;103179.81;;;19.84;51.09
62617;BME280;62539;51.190;6.808;2023-02-14T00:16:55;103177.19;;;19.81;50.77
62617;BME280;62539;51.190;6.808;2023-02-14T00:19:21;103178.06;;;19.80;50.97
62617;BME280;62539;51.190;6.808;2023-02-14T00:21:48;103177.19;;;19.78;50.95
62617;BME280;62539;51.190;6.808;2023-02-14T00:24:19;103171.06;;;19.76;51.03
62617;BME280;62539;51.190;6.808;2023-02-14T00:26:47;103172.81;;;19.74;50.97
62617;BME280;62539;51.190;6.808;2023-02-14T00:29:16;103171.06;;;19.73;51.07
62617;BME280;62539;51.190;6.808;2023-02-14T00:31:43;103169.31;;;19.70;51.06
62617;BME280;62539;51.190;6.808;2023-02-14T00:34:10;103178.09;;;19.69;51.05
62617;BME280;62539;51.190;6.808;2023-02-14T00:36:36;103171.97;;;19.67;51.09
62617;BME280;62539;51.190;6.808;2023-02-14T00:39:06;103176.34;;;19.65;51.23
62617;BME280;62539;51.190;6.808;2023-02-14T00:41:34;103172.84;;;19.63;51.22
62617;BME280;62539;51.190;6.808;2023-02-14T00:43:59;103163.16;;;19.60;51.42
62617;BME280;62539;51.190;6.808;2023-02-14T00:46:25;103168.44;;;19.60;51.26
62617;BME280;62539;51.190;6.808;2023-02-14T00:48:52;103171.97;;;19.58;51.25
62617;BME280;62539;51.190;6.808;2023-02-14T00:51:18;103163.19;;;19.56;51.30
62617;BME280;62539;51.190;6.808;2023-02-14T00:53:46;103165.81;;;19.54;51.17
62617;BME280;62539;51.190;6.808;2023-02-14T00:56:13;103164.94;;;19.52;51.30
62617;BME280;62539;51.190;6.808;2023-02-14T00:58:40;103165.81;;;19.49;51.21
62617;BME280;62539;51.190;6.808;2023-02-14T01:01:06;103161.41;;;19.47;51.38
62617;BME280;62539;51.190;6.808;2023-02-14T01:03:32;103167.56;;;19.46;51.47
62617;BME280;62539;51.190;6.808;2023-02-14T01:05:57;103171.09;;;19.43;51.36
62617;BME280;62539;51.190;6.808;2023-02-14T01:08:23;103175.47;;;19.43;51.40
62617;BME280;62539;51.190;6.808;2023-02-14T01:10:49;103175.47;;;19.39;51.60
62617;BME280;62539;51.190;6.808;2023-02-14T01:13:15;103168.44;;;19.38;51.47
62617;BME280;62539;51.190;6.808;2023-02-14T01:15:47;103172.81;;;19.36;51.43
62617;BME280;62539;51.190;6.808;2023-02-14T01:18:17;103177.22;;;19.34;51.56
62617;BME280;62539;51.190;6.808;2023-02-14T01:20:44;103175.47;;;19.33;51.45
62617;BME280;62539;51.190;6.808;2023-02-14T01:23:10;103179.84;;;19.31;51.39
62617;BME280;62539;51.190;6.808;2023-02-14T01:25:36;103179.84;;;19.30;51.50
62617;BME280;62539;51.190;6.808;2023-02-14T01:28:04;103173.69;;;19.29;51.51
62617;BME280;62539;51.190;6.808;2023-02-14T01:30:29;103172.81;;;19.27;51.62
62617;BME280;62539;51.190;6.808;2023-02-14T01:32:55;103177.22;;;19.25;51.68
62617;BME280;62539;51.190;6.808;2023-02-14T01:35:20;103166.69;;;19.22;51.45
62617;BME280;62539;51.190;6.808;2023-02-14T01:37:46;103165.81;;;19.20;51.70
62617;BME280;62539;51.190;6.808;2023-02-14T01:40:12;103171.94;;;19.19;51.70
62617;BME280;62539;51.190;6.808;2023-02-14T01:42:38;103176.31;;;19.17;51.69
62617;BME280;62539;51.190;6.808;2023-02-14T01:45:16;103171.94;;;19.16;51.64
62617;BME280;62539;51.190;6.808;2023-02-14T01:47:45;103165.78;;;19.14;51.94
62617;BME280;62539;51.190;6.808;2023-02-14T01:52:54;103169.28;;;19.09;51.65
62617;BME280;62539;51.190;6.808;2023-02-14T01:55:28;103159.66;;;19.08;51.75
62617;BME280;62539;51.190;6.808;2023-02-14T01:58:09;103164.03;;;19.05;51.77
62617;BME280;62539;51.190;6.808;2023-02-14T02:00:39;103164.03;;;19.03;51.82
62617;BME280;62539;51.190;6.808;2023-02-14T02:03:31;103158.75;;;19.00;51.85
62617;BME280;62539;51.190;6.808;2023-02-14T02:09:01;103150.00;;;18.97;51.93
62617;BME280;62539;51.190;6.808;2023-02-14T02:11:37;103151.72;;;18.94;51.98
62617;BME280;62539;51.190;6.808;2023-02-14T02:14:12;103149.94;;;18.92;51.94
62617;BME280;62539;51.190;6.808;2023-02-14T02:16:45;103149.06;;;18.90;52.00
62617;BME280;62539;51.190;6.808;2023-02-14T02:23:03;103145.53;;;18.85;51.89
62617;BME280;62539;51.190;6.808;2023-02-14T02:29:11;103147.31;;;18.81;51.99
62617;BME280;62539;51.190;6.808;2023-02-14T02:32:30;103149.91;;;18.76;52.15
62617;BME280;62539;51.190;6.808;2023-02-14T02:47:41;103136.75;;;18.67;51.96
62617;BME280;62539;51.190;6.808;2023-02-14T02:50:23;103134.97;;;18.66;52.08
62617;BME280;62539;51.190;6.808;2023-02-14T02:56:31;103127.97;;;18.63;51.96
62617;BME280;62539;51.190;6.808;2023-02-14T02:59:21;103134.97;;;18.60;52.14
62617;BME280;62539;51.190;6.808;2023-02-14T03:02:00;103134.09;;;18.58;52.14
62617;BME280;62539;51.190;6.808;2023-02-14T03:04:32;103126.19;;;18.58;52.14
62617;BME280;62539;51.190;6.808;2023-02-14T03:10:21;103139.38;;;18.55;52.19
62617;BME280;62539;51.190;6.808;2023-02-14T03:19:20;103139.34;;;18.48;52.17
62617;BME280;62539;51.190;6.808;2023-02-14T03:22:38;103143.72;;;18.46;52.35
62617;BME280;62539;51.190;6.808;2023-02-14T03:31:06;103139.31;;;18.42;52.43
62617;BME280;62539;51.190;6.808;2023-02-14T03:34:00;103140.19;;;18.41;52.27
62617;BME280;62539;51.190;6.808;2023-02-14T03:36:47;103148.06;;;18.41;52.31
62617;BME280;62539;51.190;6.808;2023-02-14T03:40:39;103150.69;;;18.38;52.31
62617;BME280;62539;51.190;6.808;2023-02-14T03:42:48;103146.28;;;18.39;52.08
62617;BME280;62539;51.190;6.808;2023-02-14T03:45:24;103142.78;;;18.36;52.24
62617;BME280;62539;51.190;6.808;2023-02-14T03:48:00;103144.56;;;18.36;52.28
62617;BME280;62539;51.190;6.808;2023-02-14T03:50:33;103142.78;;;18.36;52.25
62617;BME280;62539;51.190;6.808;2023-02-14T03:53:03;103151.53;;;18.35;52.34
62617;BME280;62539;51.190;6.808;2023-02-14T03:55:36;103150.69;;;18.35;52.26
62617;BME280;62539;51.190;6.808;2023-02-14T03:58:15;103149.78;;;18.34;52.21
62617;BME280;62539;51.190;6.808;2023-02-14T04:01:00;103145.41;;;18.33;52.22
62617;BME280;62539;51.190;6.808;2023-02-14T04:03:31;103141.91;;;18.33;52.34
62617;BME280;62539;51.190;6.808;2023-02-14T04:05:59;103146.28;;;18.32;52.28
62617;BME280;62539;51.190;6.808;2023-02-14T04:08:28;103145.41;;;18.32;52.14
62617;BME280;62539;51.190;6.808;2023-02-14T04:10:57;103147.16;;;18.30;52.26
62617;BME280;62539;51.190;6.808;2023-02-14T04:13:24;103145.41;;;18.29;52.21
62617;BME280;62539;51.190;6.808;2023-02-14T04:15:50;103141.00;;;18.28;52.25
62617;BME280;62539;51.190;6.808;2023-02-14T04:18:15;103154.16;;;18.28;52.35
62617;BME280;62539;51.190;6.808;2023-02-14T04:20:59;103148.88;;;18.25;52.25
62617;BME280;62539;51.190;6.808;2023-02-14T04:23:25;103144.50;;;18.24;52.34
62617;BME280;62539;51.190;6.808;2023-02-14T04:25:51;103139.22;;;18.22;52.28
62617;BME280;62539;51.190;6.808;2023-02-14T04:28:16;103132.22;;;18.21;52.19
62617;BME280;62539;51.190;6.808;2023-02-14T04:30:41;103147.13;;;18.20;52.45
62617;BME280;62539;51.190;6.808;2023-02-14T04:33:07;103134.84;;;18.19;52.25
62617;BME280;62539;51.190;6.808;2023-02-14T04:35:34;103136.56;;;18.19;52.29
62617;BME280;62539;51.190;6.808;2023-02-14T04:38:00;103131.34;;;18.22;52.63
62617;BME280;62539;51.190;6.808;2023-02-14T04:40:26;103131.38;;;18.28;52.64
62617;BME280;62539;51.190;6.808;2023-02-14T04:42:52;103127.03;;;18.40;52.60
62617;BME280;62539;51.190;6.808;2023-02-14T04:45:17;103125.34;;;18.53;52.14
62617;BME280;62539;51.190;6.808;2023-02-14T04:47:43;103117.47;;;18.68;52.06
62617;BME280;62539;51.190;6.808;2023-02-14T04:50:11;103120.13;;;18.84;51.71
62617;BME280;62539;51.190;6.808;2023-02-14T04:52:37;103115.78;;;19.01;51.22
62617;BME280;62539;51.190;6.808;2023-02-14T04:55:03;103110.53;;;19.17;50.92
62617;BME280;62539;51.190;6.808;2023-02-14T04:57:29;103113.19;;;19.31;50.46
62617;BME280;62539;51.190;6.808;2023-02-14T04:59:55;103109.66;;;19.41;50.33
62617;BME280;62539;51.190;6.808;2023-02-14T05:02:21;103109.66;;;19.49;49.93
62617;BME280;62539;51.190;6.808;2023-02-14T05:04:46;103102.63;;;19.51;49.79
62617;BME280;62539;51.190;6.808;2023-02-14T05:07:12;103099.13;;;19.52;49.79
62617;BME280;62539;51.190;6.808;2023-02-14T05:09:37;103100.00;;;19.52;49.62
62617;BME280;62539;51.190;6.808;2023-02-14T05:12:03;103105.25;;;19.54;49.85
62617;BME280;62539;51.190;6.808;2023-02-14T05:14:28;103107.00;;;19.60;49.82
62617;BME280;62539;51.190;6.808;2023-02-14T05:16:53;103103.47;;;19.65;49.67
62617;BME280;62539;51.190;6.808;2023-02-14T05:19:19;103093.81;;;19.72;49.48
62617;BME280;62539;51.190;6.808;2023-02-14T05:21:44;103100.81;;;19.81;49.30
62617;BME280;62539;51.190;6.808;2023-02-14T05:24:11;103102.56;;;19.91;49.14
62617;BME280;62539;51.190;6.808;2023-02-14T05:26:36;103095.53;;;20.01;48.93
62617;BME280;62539;51.190;6.808;2023-02-14T05:29:02;103093.72;;;20.12;48.87
62617;BME280;62539;51.190;6.808;2023-02-14T05:31:27;103090.16;;;20.23;48.39
62617;BME280;62539;51.190;6.808;2023-02-14T05:33:53;103088.34;;;20.33;48.29
62617;BME280;62539;51.190;6.808;2023-02-14T05:36:18;103087.41;;;20.45;48.02
62617;BME280;62539;51.190;6.808;2023-02-14T05:38:43;103092.59;;;20.55;47.76
62617;BME280;62539;51.190;6.808;2023-02-14T05:41:09;103094.31;;;20.67;47.51
62617;BME280;62539;51.190;6.808;2023-02-14T05:43:34;103085.47;;;20.73;47.12
62617;BME280;62539;51.190;6.808;2023-02-14T05:46:00;103090.72;;;20.79;47.34
62617;BME280;62539;51.190;6.808;2023-02-14T05:48:25;103095.97;;;20.82;47.16
62617;BME280;62539;51.190;6.808;2023-02-14T05:50:50;103087.19;;;20.83;47.34
62617;BME280;62539;51.190;6.808;2023-02-14T05:53:16;103088.94;;;20.84;47.23
62617;BME280;62539;51.190;6.808;2023-02-14T05:55:42;103089.81;;;20.88;47.12
62617;BME280;62539;51.190;6.808;2023-02-14T05:58:07;103094.13;;;20.94;47.56
62617;BME280;62539;51.190;6.808;2023-02-14T06:00:33;103093.22;;;20.99;47.17
62617;BME280;62539;51.190;6.808;2023-02-14T06:02:59;103094.03;;;21.06;47.01
62617;BME280;62539;51.190;6.808;2023-02-14T06:05:25;103093.09;;;21.15;47.27
62617;BME280;62539;51.190;6.808;2023-02-14T06:07:51;103092.16;;;21.21;47.00
62617;BME280;62539;51.190;6.808;2023-02-14T06:10:21;103084.22;;;21.24;46.61
62617;BME280;62539;51.190;6.808;2023-02-14T06:12:49;103086.81;;;21.27;46.57
62617;BME280;62539;51.190;6.808;2023-02-14T06:15:16;103097.38;;;21.27;46.66
62617;BME280;62539;51.190;6.808;2023-02-14T06:17:42;103093.00;;;21.26;46.39
62617;BME280;62539;51.190;6.808;2023-02-14T06:20:09;103093.94;;;21.20;46.06
62617;BME280;62539;51.190;6.808;2023-02-14T06:22:36;103097.47;;;21.18;46.26
62617;BME280;62539;51.190;6.808;2023-02-14T06:25:03;103097.47;;;21.18;46.13
62617;BME280;62539;51.190;6.808;2023-02-14T06:27:30;103101.81;;;21.22;45.76
62617;BME280;62539;51.190;6.808;2023-02-14T06:29:57;103106.19;;;21.26;46.03
62617;BME280;62539;51.190;6.808;2023-02-14T06:32:23;103102.63;;;21.30;45.81
62617;BME280;62539;51.190;6.808;2023-02-14T06:34:48;103107.00;;;21.33;45.87
62617;BME280;62539;51.190;6.808;2023-02-14T06:37:14;103114.03;;;21.34;45.80
62617;BME280;62539;51.190;6.808;2023-02-14T06:39:39;103120.19;;;21.34;45.64
62617;BME280;62539;51.190;6.808;2023-02-14T06:42:05;103115.81;;;21.33;46.03
62617;BME280;62539;51.190;6.808;2023-02-14T06:44:30;103118.47;;;21.30;46.03
62617;BME280;62539;51.190;6.808;2023-02-14T06:46:55;103127.28;;;21.27;46.31
62617;BME280;62539;51.190;6.808;2023-02-14T06:49:21;103120.25;;;21.28;46.02
62617;BME280;62539;51.190;6.808;2023-02-14T06:51:48;103125.50;;;21.31;46.36
62617;BME280;62539;51.190;6.808;2023-02-14T06:54:13;103122.81;;;21.36;46.37
62617;BME280;62539;51.190;6.808;2023-02-14T06:56:39;103121.00;;;21.41;45.98
62617;BME280;62539;51.190;6.808;2023-02-14T06:59:04;103117.44;;;21.45;46.05
62617;BME280;62539;51.190;6.808;2023-02-14T07:01:30;103121.84;;;21.46;46.24
62617;BME280;62539;51.190;6.808;2023-02-14T07:03:55;103117.44;;;21.45;46.09
62617;BME280;62539;51.190;6.808;2023-02-14T07:06:21;103112.19;;;21.42;45.94
62617;BME280;62539;51.190;6.808;2023-02-14T07:08:46;103120.13;;;21.40;46.05
62617;BME280;62539;51.190;6.808;2023-02-14T07:11:12;103122.75;;;21.42;46.20
62617;BME280;62539;51.190;6.808;2023-02-14T07:13:37;103118.34;;;21.44;46.21
62617;BME280;62539;51.190;6.808;2023-02-14T07:16:03;103114.81;;;21.47;46.03
62617;BME280;62539;51.190;6.808;2023-02-14T07:18:28;103120.91;;;21.52;46.05
62617;BME280;62539;51.190;6.808;2023-02-14T07:20:54;103117.34;;;21.56;46.26
62617;BME280;62539;51.190;6.808;2023-02-14T07:23:19;103121.72;;;21.58;45.92
62617;BME280;62539;51.190;6.808;2023-02-14T07:25:44;103109.41;;;21.59;45.79
62617;BME280;62539;51.190;6.808;2023-02-14T07:28:10;103112.06;;;21.54;45.87
62617;BME280;62539;51.190;6.808;2023-02-14T07:30:35;103113.00;;;21.52;46.00
62617;BME280;62539;51.190;6.808;2023-02-14T07:33:01;103115.63;;;21.52;45.78
62617;BME280;62539;51.190;6.808;2023-02-14T07:35:26;103112.09;;;21.53;46.04
62617;BME280;62539;51.190;6.808;2023-02-14T07:37:52;103107.66;;;21.58;45.85
62617;BME280;62539;51.190;6.808;2023-02-14T07:40:18;103118.19;;;21.64;45.63
62617;BME280;62539;51.190;6.808;2023-02-14T07:42:49;103111.09;;;21.69;45.65
62617;BME280;62539;51.190;6.808;2023-02-14T07:45:16;103118.97;;;21.72;45.62
62617;BME280;62539;51.190;6.808;2023-02-14T07:47:42;103112.81;;;21.73;45.51
62617;BME280;62539;51.190;6.808;2023-02-14T07:50:07;103107.50;;;21.72;45.55
62617;BME280;62539;51.190;6.808;2023-02-14T07:52:33;103118.13;;;21.70;45.70
62617;BME280;62539;51.190;6.808;2023-02-14T07:54:58;103119.03;;;21.66;45.46
62617;BME280;62539;51.190;6.808;2023-02-14T07:57:24;103116.44;;;21.63;45.17
62617;BME280;62539;51.190;6.808;2023-02-14T07:59:49;103114.69;;;21.59;45.68
62617;BME280;62539;51.190;6.808;2023-02-14T08:02:14;103114.72;;;21.56;45.72
62617;BME280;62539;51.190;6.808;2023-02-14T08:04:40;103114.72;;;21.56;45.77
62617;BME280;62539;51.190;6.808;2023-02-14T08:07:05;103118.19;;;21.59;46.07
62617;BME280;62539;51.190;6.808;2023-02-14T08:09:31;103115.53;;;21.64;45.75
62617;BME280;62539;51.190;6.808;2023-02-14T08:11:57;103114.59;;;21.70;45.68
62617;BME280;62539;51.190;6.808;2023-02-14T08:14:42;103115.38;;;21.78;45.67
62617;BME280;62539;51.190;6.808;2023-02-14T08:17:09;103122.38;;;21.84;45.73
62617;BME280;62539;51.190;6.808;2023-02-14T08:19:37;103110.88;;;21.88;45.37
62617;BME280;62539;51.190;6.808;2023-02-14T08:22:03;103117.91;;;21.89;45.48
62617;BME280;62539;51.190;6.808;2023-02-14T08:24:30;103117.91;;;21.89;45.26
62617;BME280;62539;51.190;6.808;2023-02-14T08:26:56;103111.72;;;21.90;45.39
62617;BME280;62539;51.190;6.808;2023-02-14T08:29:22;103122.28;;;21.93;45.66
62617;BME280;62539;51.190;6.808;2023-02-14T08:31:47;103122.19;;;21.98;45.20
62617;BME280;62539;51.190;6.808;2023-02-14T08:34:14;103118.63;;;22.03;45.32
62617;BME280;62539;51.190;6.808;2023-02-14T08:36:41;103117.66;;;22.11;44.98
62617;BME280;62539;51.190;6.808;2023-02-14T08:39:07;103114.91;;;22.18;45.08
62617;BME280;62539;51.190;6.808;2023-02-14T08:41:34;103122.75;;;22.26;44.76
62617;BME280;62539;51.190;6.808;2023-02-14T08:44:00;103125.31;;;22.31;44.74
62617;BME280;62539;51.190;6.808;2023-02-14T08:46:26;103127.88;;;22.37;44.27
62617;BME280;62539;51.190;6.808;2023-02-14T08:48:52;103128.69;;;22.44;44.10
62617;BME280;62539;51.190;6.808;2023-02-14T08:51:19;103126.84;;;22.51;43.86
62617;BME280;62539;51.190;6.808;2023-02-14T08:53:48;103119.69;;;22.59;43.80
62617;BME280;62539;51.190;6.808;2023-02-14T08:56:15;103120.44;;;22.69;43.81
62617;BME280;62539;51.190;6.808;2023-02-14T08:58:40;103121.19;;;22.75;43.77
62617;BME280;62539;51.190;6.808;2023-02-14T09:01:16;103115.81;;;22.83;42.98
62617;BME280;62539;51.190;6.808;2023-02-14T09:03:42;103116.59;;;22.88;42.76
62617;BME280;62539;51.190;6.808;2023-02-14T09:06:11;103116.56;;;22.92;42.66
62617;BME280;62539;51.190;6.808;2023-02-14T09:08:40;103110.22;;;23.00;42.33
62617;BME280;62539;51.190;6.808;2023-02-14T09:11:07;103112.66;;;23.14;42.49
62617;BME280;62539;51.190;6.808;2023-02-14T09:13:36;103111.47;;;23.32;42.14
62617;BME280;62539;51.190;6.808;2023-02-14T09:16:03;103102.34;;;23.51;41.34
62617;BME280;62539;51.190;6.808;2023-02-14T09:18:29;103108.19;;;23.68;40.97
62617;BME280;62539;51.190;6.808;2023-02-14T09:20:55;103104.34;;;23.85;40.94
62617;BME280;62539;51.190;6.808;2023-02-14T09:23:20;103102.25;;;24.01;40.60
62617;BME280;62539;51.190;6.808;2023-02-14T09:25:45;103108.09;;;24.17;39.90
62617;BME280;62539;51.190;6.808;2023-02-14T09:28:11;103098.88;;;24.35;39.99
62617;BME280;62539;51.190;6.808;2023-02-14T09:30:36;103089.59;;;24.53;39.17
62617;BME280;62539;51.190;6.808;2023-02-14T09:33:02;103090.03;;;24.74;39.28
62617;BME280;62539;51.190;6.808;2023-02-14T09:35:29;103090.47;;;24.91;39.08
62617;BME280;62539;51.190;6.808;2023-02-14T09:38:14;103091.81;;;25.09;38.83
62617;BME280;62539;51.190;6.808;2023-02-14T09:40:39;103089.66;;;25.24;38.26
62617;BME280;62539;51.190;6.808;2023-02-14T09:43:29;103090.13;;;25.40;38.24
62617;BME280;62539;51.190;6.808;2023-02-14T09:46:16;103086.13;;;25.58;37.71
62617;BME280;62539;51.190;6.808;2023-02-14T09:48:45;103097.16;;;25.76;37.76
62617;BME280;62539;51.190;6.808;2023-02-14T09:51:18;103086.00;;;25.93;37.34
62617;BME280;62539;51.190;6.808;2023-02-14T09:54:04;103090.88;;;26.08;37.40
62617;BME280;62539;51.190;6.808;2023-02-14T09:56:53;103090.41;;;26.25;37.09
62617;BME280;62539;51.190;6.808;2023-02-14T09:59:31;103077.47;;;26.41;36.64
62617;BME280;62539;51.190;6.808;2023-02-14T10:04:46;103079.34;;;26.66;35.97
62617;BME280;62539;51.190;6.808;2023-02-14T10:07:39;103081.50;;;26.82;35.78
62617;BME280;62539;51.190;6.808;2023-02-14T10:12:54;103080.63;;;27.08;35.48
62617;BME280;62539;51.190;6.808;2023-02-14T10:15:30;103080.72;;;27.05;35.37
62617;BME280;62539;51.190;6.808;2023-02-14T10:20:56;103079.66;;;27.11;35.44
62617;BME280;62539;51.190;6.808;2023-02-14T10:23:41;103083.78;;;27.20;35.36
62617;BME280;62539;51.190;6.808;2023-02-14T10:26:23;103071.81;;;27.32;34.85
62617;BME280;62539;51.190;6.808;2023-02-14T10:29:02;103075.19;;;27.37;35.10
62617;BME280;62539;51.190;6.808;2023-02-14T10:31:37;103079.00;;;27.29;35.21
62617;BME280;62539;51.190;6.808;2023-02-14T10:34:15;103078.94;;;27.31;35.14
62617;BME280;62539;51.190;6.808;2023-02-14T10:43:08;103066.88;;;27.46;34.78
62617;BME280;62539;51.190;6.808;2023-02-14T10:48:49;103053.53;;;27.46;34.87
62617;BME280;62539;51.190;6.808;2023-02-14T10:51:41;103061.16;;;27.57;34.52
62617;BME280;62539;51.190;6.808;2023-02-14T10:54:26;103050.44;;;27.58;34.62
62617;BME280;62539;51.190;6.808;2023-02-14T10:57:02;103042.38;;;27.60;34.59
62617;BME280;62539;51.190;6.808;2023-02-14T10:59:48;103041.44;;;27.61;34.76
62617;BME280;62539;51.190;6.808;2023-02-14T11:02:17;103041.09;;;27.70;34.66
62617;BME280;62539;51.190;6.808;2023-02-14T11:04:49;103040.81;;;27.78;34.43
62617;BME280;62539;51.190;6.808;2023-02-14T11:07:17;103030.84;;;27.83;34.44
62617;BME280;62539;51.190;6.808;2023-02-14T11:09:45;103030.03;;;27.81;34.45
62617;BME280;62539;51.190;6.808;2023-02-14T11:12:11;103036.22;;;27.82;34.60
62617;BME280;62539;51.190;6.808;2023-02-14T11:15:29;103030.50;;;27.93;34.43
62617;BME280;62539;51.190;6.808;2023-02-14T11:18:09;103027.94;;;28.13;34.06
62617;BME280;62539;51.190;6.808;2023-02-14T11:20:38;103026.28;;;28.31;33.91
62617;BME280;62539;51.190;6.808;2023-02-14T11:23:17;103021.06;;;28.51;33.54
62617;BME280;62539;51.190;6.808;2023-02-14T11:25:49;103025.50;;;28.72;33.21
62617;BME280;62539;51.190;6.808;2023-02-14T11:28:17;103019.41;;;28.91;32.70
62617;BME280;62539;51.190;6.808;2023-02-14T11:30:45;103024.06;;;29.07;32.60
62617;BME280;62539;51.190;6.808;2023-02-14T11:33:32;103013.81;;;29.16;32.51
62617;BME280;62539;51.190;6.808;2023-02-14T11:36:11;103008.78;;;29.29;32.28
62617;BME280;62539;51.190;6.808;2023-02-14T11:38:40;103015.41;;;29.41;31.98
62617;BME280;62539;51.190;6.808;2023-02-14T11:41:10;103008.75;;;29.50;32.13
62617;BME280;62539;51.190;6.808;2023-02-14T11:43:41;102998.41;;;29.61;31.59
62617;BME280;62539;51.190;6.808;2023-02-14T11:51:28;102988.28;;;29.87;31.04
62617;BME280;62539;51.190;6.808;2023-02-14T11:53:58;102977.28;;;29.93;31.22
62617;BME280;62539;51.190;6.808;2023-02-14T11:56:47;102983.41;;;29.96;31.04
62617;BME280;62539;51.190;6.808;2023-02-14T11:59:30;102972.53;;;30.00;31.10
62617;BME280;62539;51.190;6.808;2023-02-14T12:02:03;102978.59;;;30.04;30.88
62617;BME280;62539;51.190;6.808;2023-02-14T12:04:44;102973.09;;;30.07;30.79
62617;BME280;62539;51.190;6.808;2023-02-14T12:07:17;102976.63;;;30.08;30.78
62617;BME280;62539;51.190;6.808;2023-02-14T12:09:47;102962.31;;;30.09;30.66
62617;BME280;62539;51.190;6.808;2023-02-14T12:12:29;102973.03;;;30.09;30.97
62617;BME280;62539;51.190;6.808;2023-02-14T12:15:20;102963.47;;;30.03;30.91
62617;BME280;62539;51.190;6.808;2023-02-14T12:17:57;102958.91;;;30.05;30.98
62617;BME280;62539;51.190;6.808;2023-02-14T12:20:39;102950.19;;;30.01;30.60
62617;BME280;62539;51.190;6.808;2023-02-14T12:23:34;102952.25;;;29.95;31.14
62617;BME280;62539;51.190;6.808;2023-02-14T12:26:27;102937.13;;;29.93;30.84
62617;BME280;62539;51.190;6.808;2023-02-14T12:31:42;102927.38;;;29.92;30.81
62617;BME280;62539;51.190;6.808;2023-02-14T12:34:12;102917.56;;;29.93;31.00
62617;BME280;62539;51.190;6.808;2023-02-14T12:45:54;102908.94;;;29.86;28.99
62617;BME280;62539;51.190;6.808;2023-02-14T12:48:36;102906.38;;;29.85;27.67
62617;BME280;62539;51.190;6.808;2023-02-14T13:03:04;102892.28;;;29.44;25.16
62617;BME280;62539;51.190;6.808;2023-02-14T13:05:48;102881.34;;;29.49;24.85
62617;BME280;62539;51.190;6.808;2023-02-14T13:08:29;102878.81;;;29.46;24.49
62617;BME280;62539;51.190;6.808;2023-02-14T13:11:07;102880.63;;;29.45;24.53
62617;BME280;62539;51.190;6.808;2023-02-14T13:14:09;102868.75;;;29.51;25.16
62617;BME280;62539;51.190;6.808;2023-02-14T13:16:44;102871.47;;;29.69;25.43
62617;BME280;62539;51.190;6.808;2023-02-14T13:22:19;102869.97;;;30.00;26.12
62617;BME280;62539;51.190;6.808;2023-02-14T13:24:55;102862.25;;;30.11;26.08
62617;BME280;62539;51.190;6.808;2023-02-14T13:27:26;102865.25;;;30.23;26.27
62617;BME280;62539;51.190;6.808;2023-02-14T13:30:11;102863.03;;;30.31;26.56
62617;BME280;62539;51.190;6.808;2023-02-14T13:32:52;102857.03;;;30.43;26.53
62617;BME280;62539;51.190;6.808;2023-02-14T13:35:21;102853.84;;;30.53;26.54
62617;BME280;62539;51.190;6.808;2023-02-14T13:37:53;102841.91;;;30.60;26.59
62617;BME280;62539;51.190;6.808;2023-02-14T13:40:22;102850.56;;;30.65;26.83
62617;BME280;62539;51.190;6.808;2023-02-14T13:42:51;102839.66;;;30.68;26.79
62617;BME280;62539;51.190;6.808;2023-02-14T13:48:09;102841.84;;;30.77;27.05
62617;BME280;62539;51.190;6.808;2023-02-14T13:50:39;102841.59;;;30.82;26.31
62617;BME280;62539;51.190;6.808;2023-02-14T13:53:29;102830.88;;;30.82;26.35
62617;BME280;62539;51.190;6.808;2023-02-14T13:55:58;102825.69;;;30.95;26.67
62617;BME280;62539;51.190;6.808;2023-02-14T13:58:25;102834.16;;;31.03;26.52
62617;BME280;62539;51.190;6.808;2023-02-14T14:00:51;102830.19;;;31.11;26.81
62617;BME280;62539;51.190;6.808;2023-02-14T14:06:04;102823.28;;;31.38;26.69
62617;BME280;62539;51.190;6.808;2023-02-14T14:08:36;102819.28;;;31.46;26.22
62617;BME280;62539;51.190;6.808;2023-02-14T14:13:54;102813.72;;;31.18;26.79
62617;BME280;62539;51.190;6.808;2023-02-14T14:18:49;102811.47;;;30.61;28.04
62617;BME280;62539;51.190;6.808;2023-02-14T14:24:25;102807.00;;;30.10;28.91
62617;BME280;62539;51.190;6.808;2023-02-14T14:32:33;102799.41;;;29.48;29.64
62617;BME280;62539;51.190;6.808;2023-02-14T14:35:05;102788.84;;;29.45;30.13
62617;BME280;62539;51.190;6.808;2023-02-14T14:37:54;102790.31;;;29.33;30.13
62617;BME280;62539;51.190;6.808;2023-02-14T14:40:34;102789.72;;;29.26;30.23
62617;BME280;62539;51.190;6.808;2023-02-14T14:43:11;102776.06;;;29.15;30.54
62617;BME280;62539;51.190;6.808;2023-02-14T14:45:45;102772.09;;;29.04;30.77
62617;BME280;62539;51.190;6.808;2023-02-14T14:51:22;102766.50;;;28.71;31.41
62617;BME280;62539;51.190;6.808;2023-02-14T14:54:03;102769.84;;;28.57;31.48
62617;BME280;62539;51.190;6.808;2023-02-14T14:56:35;102766.00;;;28.43;31.84
62617;BME280;62539;51.190;6.808;2023-02-14T14:59:17;102764.22;;;28.23;32.11
62617;BME280;62539;51.190;6.808;2023-02-14T15:01:51;102760.69;;;28.02;32.52
62617;BME280;62539;51.190;6.808;2023-02-14T15:04:30;102760.81;;;27.78;32.75
62617;BME280;62539;51.190;6.808;2023-02-14T15:07:16;102751.19;;;27.53;33.15
62617;BME280;62539;51.190;6.808;2023-02-14T15:09:44;102743.84;;;27.36;33.67